Time;durP1;ratioP1;P1;durP2;ratioP2;P2;SDS_P1;SDS_P2;PMS_P1;PMS_P2;Temp;Humidity;BMP_temperature;BMP_pressure;BME280_temperature;BME280_humidity;BME280_pressure;Samples;Min_cycle;Max_cycle;Signal;HPM_P1;HPM_P2
2022/10/17 00:01:42;;;;;;;7.47;6.25;;;13.10;99.90;;;;;;5007627;28;20089;-32
2022/10/17 00:04:08;;;;;;;8.88;7.35;;;13.20;99.90;;;;;;5028900;28;20045;-31
2022/10/17 00:06:34;;;;;;;7.78;6.20;;;13.10;99.90;;;;;;5010229;28;20076;-32
2022/10/17 00:09:00;;;;;;;7.32;5.72;;;13.10;99.90;;;;;;5011271;28;20045;-30
2022/10/17 00:11:25;;;;;;;9.63;5.72;;;13.10;99.90;;;;;;5012059;28;20411;-32
2022/10/17 00:13:54;;;;;;;8.88;6.50;;;13.20;99.90;;;;;;5005205;28;20042;-30
2022/10/17 00:16:28;;;;;;;8.05;7.25;;;13.20;99.90;;;;;;5013889;28;20034;-33
2022/10/17 00:18:54;;;;;;;7.32;6.25;;;13.20;99.90;;;;;;5002000;28;20042;-32
2022/10/17 00:21:21;;;;;;;8.90;6.60;;;13.20;99.90;;;;;;5007709;28;20044;-31
2022/10/17 00:23:47;;;;;;;13.38;6.85;;;13.30;99.90;;;;;;5004865;28;20061;-32
2022/10/17 00:26:14;;;;;;;9.68;7.32;;;13.30;99.90;;;;;;4998952;28;20046;-31
2022/10/17 00:28:40;;;;;;;7.63;6.93;;;13.30;99.90;;;;;;5005826;28;20080;-32
2022/10/17 00:31:06;;;;;;;9.88;6.32;;;13.30;99.90;;;;;;5017467;28;20068;-31
2022/10/17 00:33:33;;;;;;;9.15;7.30;;;13.30;99.90;;;;;;5004556;28;20100;-32
2022/10/17 00:36:20;;;;;;;7.68;6.95;;;13.30;99.90;;;;;;5014584;28;20071;-29
2022/10/17 00:38:49;;;;;;;8.45;6.47;;;13.30;99.90;;;;;;5015129;28;20400;-31
2022/10/17 00:41:16;;;;;;;7.72;6.80;;;13.20;99.90;;;;;;5017603;28;20059;-30
2022/10/17 00:44:25;;;;;;;7.35;6.70;;;13.20;99.90;;;;;;5027458;28;20560;-32
2022/10/17 00:46:50;;;;;;;10.05;7.55;;;13.30;99.90;;;;;;5006919;28;20575;-33
2022/10/17 00:49:16;;;;;;;9.80;7.85;;;13.20;99.90;;;;;;5010624;28;20116;-31
2022/10/17 00:51:53;;;;;;;8.23;7.40;;;13.30;99.90;;;;;;5015824;28;20040;-31
2022/10/17 00:54:22;;;;;;;7.82;6.93;;;13.30;99.90;;;;;;5014821;28;20510;-31
2022/10/17 00:56:49;;;;;;;11.60;8.48;;;13.30;99.90;;;;;;5006531;28;20038;-33
2022/10/17 00:59:16;;;;;;;8.52;7.63;;;13.30;99.90;;;;;;5007618;28;20432;-32
2022/10/17 01:02:06;;;;;;;8.55;7.53;;;13.30;99.90;;;;;;5015406;28;20491;-32
2022/10/17 01:04:32;;;;;;;8.82;7.90;;;13.30;99.90;;;;;;5004055;28;20112;-32
2022/10/17 01:06:58;;;;;;;10.10;7.85;;;13.30;99.90;;;;;;5003594;28;20435;-30
2022/10/17 01:09:25;;;;;;;9.35;8.00;;;13.30;99.90;;;;;;5000642;28;20041;-31
2022/10/17 01:12:20;;;;;;;10.95;8.73;;;13.20;99.90;;;;;;5006272;28;20037;-33
2022/10/17 01:15:13;;;;;;;9.93;8.07;;;13.20;99.90;;;;;;4944880;28;20051;-33
2022/10/17 01:17:41;;;;;;;9.60;7.78;;;13.10;99.90;;;;;;5011002;28;20117;-29
2022/10/17 01:20:10;;;;;;;9.30;7.95;;;13.10;99.90;;;;;;5014488;28;20585;-29
2022/10/17 01:22:48;;;;;;;9.40;8.50;;;13.00;99.90;;;;;;5002846;28;20068;-30
2022/10/17 01:25:20;;;;;;;8.95;7.95;;;13.00;99.90;;;;;;5008696;28;20127;-32
2022/10/17 01:28:04;;;;;;;10.38;9.35;;;12.90;99.90;;;;;;5003545;28;20045;-32
2022/10/17 01:30:57;;;;;;;12.13;8.85;;;12.90;99.90;;;;;;5010265;28;20049;-31
2022/10/17 01:33:29;;;;;;;10.27;9.32;;;12.80;99.90;;;;;;5004285;28;20069;-34
2022/10/17 01:35:59;;;;;;;11.27;9.85;;;12.80;99.90;;;;;;5002872;28;20128;-31
2022/10/17 01:38:48;;;;;;;9.60;8.70;;;12.80;99.90;;;;;;5020953;28;20045;-33
2022/10/17 01:41:19;;;;;;;10.15;9.15;;;12.80;99.90;;;;;;5010752;28;20029;-31
2022/10/17 01:43:57;;;;;;;10.45;9.18;;;12.80;99.90;;;;;;5012454;28;20057;-32
2022/10/17 01:46:36;;;;;;;11.60;9.90;;;12.70;99.90;;;;;;5000070;28;20049;-30
2022/10/17 01:49:05;;;;;;;10.98;9.20;;;12.70;99.90;;;;;;5013986;28;20045;-33
2022/10/17 01:51:45;;;;;;;9.50;8.48;;;12.70;99.90;;;;;;5006191;28;20040;-30
2022/10/17 01:54:20;;;;;;;9.82;8.88;;;12.70;99.90;;;;;;5009754;28;20069;-30
2022/10/17 01:56:50;;;;;;;11.65;10.38;;;12.60;99.90;;;;;;5010614;28;20539;-30
2022/10/17 01:59:25;;;;;;;12.20;9.88;;;12.60;99.90;;;;;;5007533;28;20065;-31
2022/10/17 02:01:54;;;;;;;12.48;10.23;;;12.60;99.90;;;;;;5013069;28;20112;-32
2022/10/17 02:04:20;;;;;;;12.07;10.35;;;12.50;99.90;;;;;;5010471;28;20041;-35
2022/10/17 02:06:46;;;;;;;11.48;10.20;;;12.50;99.90;;;;;;5011190;28;20136;-32
2022/10/17 02:09:23;;;;;;;12.10;10.45;;;12.50;99.90;;;;;;5014033;28;20054;-30
2022/10/17 02:12:06;;;;;;;10.68;9.77;;;12.50;99.90;;;;;;5005636;28;20511;-34
2022/10/17 02:14:34;;;;;;;10.55;9.65;;;12.50;99.90;;;;;;5010412;28;20037;-31
2022/10/17 02:17:15;;;;;;;13.25;11.57;;;12.50;99.90;;;;;;5028143;28;20503;-34
2022/10/17 02:20:15;;;;;;;11.70;10.50;;;12.50;99.90;;;;;;5010198;28;20037;-30
2022/10/17 02:22:44;;;;;;;13.10;10.95;;;12.50;99.90;;;;;;5005312;28;20053;-33
2022/10/17 02:25:32;;;;;;;11.23;10.13;;;12.40;99.90;;;;;;5010475;28;20495;-30
2022/10/17 02:28:18;;;;;;;13.02;10.73;;;12.40;99.90;;;;;;5007195;28;20125;-30
2022/10/17 02:30:53;;;;;;;12.73;10.93;;;12.40;99.90;;;;;;5012223;28;20073;-32
2022/10/17 02:33:24;;;;;;;13.77;12.38;;;12.40;99.90;;;;;;5005707;28;20034;-31
2022/10/17 02:35:56;;;;;;;13.65;12.15;;;12.40;99.90;;;;;;5010418;28;20108;-30
2022/10/17 02:38:23;;;;;;;12.32;11.13;;;12.40;99.90;;;;;;5008249;28;20499;-32
2022/10/17 02:40:51;;;;;;;14.68;11.00;;;12.40;99.90;;;;;;5010524;28;20116;-30
2022/10/17 02:43:19;;;;;;;13.85;12.45;;;12.40;99.90;;;;;;5010521;28;20030;-31
2022/10/17 02:45:46;;;;;;;12.10;10.90;;;12.40;99.90;;;;;;5023206;28;20038;-31
2022/10/17 02:48:25;;;;;;;12.68;11.50;;;12.40;99.90;;;;;;5020305;28;20091;-32
2022/10/17 02:51:12;;;;;;;13.32;12.05;;;12.40;99.90;;;;;;5005005;28;20555;-30
2022/10/17 02:53:50;;;;;;;13.77;12.02;;;12.50;99.90;;;;;;5003813;28;20072;-32
2022/10/17 02:56:18;;;;;;;12.45;11.20;;;12.50;99.90;;;;;;5007398;28;20052;-30
2022/10/17 02:58:52;;;;;;;11.30;10.13;;;12.40;99.90;;;;;;5001978;28;20125;-31
2022/10/17 03:01:18;;;;;;;12.23;10.95;;;12.40;99.90;;;;;;5011242;28;20037;-29
2022/10/17 03:03:44;;;;;;;12.40;11.20;;;12.40;99.90;;;;;;5013302;28;20094;-33
2022/10/17 03:06:10;;;;;;;14.07;11.68;;;12.40;99.90;;;;;;5010131;28;20045;-29
2022/10/17 03:08:35;;;;;;;12.68;11.40;;;12.40;99.90;;;;;;5007050;28;20041;-31
2022/10/17 03:11:01;;;;;;;13.73;11.73;;;12.40;99.90;;;;;;5006366;28;20049;-34
2022/10/17 03:13:28;;;;;;;15.38;12.38;;;12.40;99.90;;;;;;5011601;28;20491;-30
2022/10/17 03:15:55;;;;;;;13.70;12.30;;;12.30;99.90;;;;;;5008573;28;20034;-31
2022/10/17 03:18:21;;;;;;;16.13;12.90;;;12.40;99.90;;;;;;5009646;28;20141;-31
2022/10/17 03:20:47;;;;;;;14.30;12.73;;;12.40;99.90;;;;;;4999379;28;20116;-31
2022/10/17 03:23:13;;;;;;;14.57;13.20;;;12.40;99.90;;;;;;5012123;28;20041;-36
2022/10/17 03:25:38;;;;;;;14.82;13.43;;;12.40;99.90;;;;;;5019339;28;20038;-30
2022/10/17 03:28:04;;;;;;;16.20;14.52;;;12.40;99.90;;;;;;5001018;28;20041;-31
2022/10/17 03:30:30;;;;;;;16.98;15.27;;;12.40;99.90;;;;;;5009516;28;20049;-31
2022/10/17 03:33:00;;;;;;;15.60;13.95;;;12.40;99.90;;;;;;5006070;28;20529;-31
2022/10/17 03:35:26;;;;;;;16.98;13.90;;;12.40;99.90;;;;;;5016395;28;20069;-31
2022/10/17 03:37:54;;;;;;;16.98;13.55;;;12.50;99.90;;;;;;5026912;28;20046;-32
2022/10/17 03:40:20;;;;;;;18.02;16.02;;;12.50;99.90;;;;;;5012589;28;20042;-32
2022/10/17 03:42:45;;;;;;;19.73;16.33;;;12.50;99.90;;;;;;5016279;28;20036;-31
2022/10/17 03:45:11;;;;;;;16.17;14.35;;;12.60;99.90;;;;;;5003965;28;20034;-33
2022/10/17 03:47:37;;;;;;;16.70;15.07;;;12.60;99.90;;;;;;5016411;28;20040;-31
2022/10/17 03:50:03;;;;;;;21.58;16.52;;;12.60;99.90;;;;;;5007309;28;20138;-31
2022/10/17 03:52:28;;;;;;;15.98;14.32;;;12.60;99.90;;;;;;5008193;28;20037;-32
2022/10/17 03:54:54;;;;;;;20.30;17.42;;;12.60;99.90;;;;;;5015709;28;20040;-34
2022/10/17 03:57:20;;;;;;;18.08;14.40;;;12.60;99.90;;;;;;5013160;28;20406;-32
2022/10/17 03:59:46;;;;;;;20.10;16.92;;;12.70;99.90;;;;;;5034133;28;20030;-31
2022/10/17 04:02:11;;;;;;;18.65;15.88;;;12.70;99.90;;;;;;5015506;28;20497;-29
2022/10/17 04:04:37;;;;;;;19.45;16.48;;;12.70;99.90;;;;;;5012321;28;20033;-32
2022/10/17 04:07:03;;;;;;;18.33;15.38;;;12.70;99.90;;;;;;5018386;28;20042;-34
2022/10/17 04:09:28;;;;;;;17.50;15.70;;;12.70;99.90;;;;;;5016043;28;20121;-30
2022/10/17 04:11:54;;;;;;;17.88;15.52;;;12.70;99.90;;;;;;5008597;28;20448;-31
2022/10/17 04:14:20;;;;;;;18.20;16.30;;;12.70;99.90;;;;;;4990076;28;20030;-31
2022/10/17 04:16:45;;;;;;;16.73;15.02;;;12.70;99.90;;;;;;5006728;28;20037;-31
2022/10/17 04:19:12;;;;;;;20.67;16.55;;;12.70;99.90;;;;;;5016024;28;20038;-33
2022/10/17 04:21:38;;;;;;;16.35;14.13;;;12.70;99.90;;;;;;5015353;28;20033;-31
2022/10/17 04:24:05;;;;;;;14.82;13.32;;;12.70;99.90;;;;;;5013360;28;20090;-31
2022/10/17 04:26:30;;;;;;;17.95;15.32;;;12.70;99.90;;;;;;5015550;28;20045;-30
2022/10/17 04:28:56;;;;;;;19.65;16.70;;;12.70;99.90;;;;;;5008308;28;20454;-31
2022/10/17 04:31:22;;;;;;;18.10;15.73;;;12.70;99.90;;;;;;5015109;28;20418;-34
2022/10/17 04:33:49;;;;;;;22.98;15.88;;;12.80;99.90;;;;;;5020756;28;20096;-31
2022/10/17 04:36:18;;;;;;;18.45;16.42;;;12.70;99.90;;;;;;5015047;28;20495;-29
2022/10/17 04:38:44;;;;;;;20.92;18.73;;;12.70;99.90;;;;;;5008891;28;20517;-32
2022/10/17 04:41:13;;;;;;;23.17;17.63;;;12.80;99.90;;;;;;5012187;28;20377;-31
2022/10/17 04:43:39;;;;;;;19.42;16.48;;;12.80;99.90;;;;;;5010485;28;20483;-32
2022/10/17 04:46:11;;;;;;;20.73;18.17;;;12.80;99.90;;;;;;5007227;28;20491;-30
2022/10/17 04:48:38;;;;;;;17.75;16.00;;;12.80;99.90;;;;;;5018750;28;20048;-33
2022/10/17 04:51:07;;;;;;;18.80;16.40;;;12.80;99.90;;;;;;5000135;28;20096;-30
2022/10/17 04:53:34;;;;;;;19.33;17.23;;;12.80;99.90;;;;;;5021546;28;20461;-31
2022/10/17 04:56:05;;;;;;;24.63;18.65;;;12.80;99.90;;;;;;5010718;28;20038;-31
2022/10/17 04:58:31;;;;;;;18.13;16.20;;;12.80;99.90;;;;;;4990826;28;20048;-32
2022/10/17 05:00:57;;;;;;;19.80;17.63;;;12.80;99.90;;;;;;5006848;28;20120;-31
2022/10/17 05:03:23;;;;;;;21.05;18.08;;;12.90;99.90;;;;;;5005195;28;20037;-31
2022/10/17 05:05:48;;;;;;;23.63;17.50;;;12.90;99.90;;;;;;4996262;28;20570;-34
2022/10/17 05:08:14;;;;;;;23.13;19.10;;;12.90;99.90;;;;;;5002438;28;20395;-32
2022/10/17 05:10:43;;;;;;;18.77;16.75;;;12.90;99.90;;;;;;5003503;28;20034;-30
2022/10/17 05:13:09;;;;;;;17.83;16.02;;;12.90;99.90;;;;;;5003582;28;20172;-30
2022/10/17 05:15:36;;;;;;;18.77;16.77;;;12.90;99.90;;;;;;5003550;28;20439;-30
2022/10/17 05:18:03;;;;;;;20.60;17.73;;;12.90;99.90;;;;;;5006584;28;20040;-33
2022/10/17 05:20:29;;;;;;;19.80;16.65;;;12.90;99.90;;;;;;5009167;28;20025;-31
2022/10/17 05:22:54;;;;;;;19.67;17.60;;;12.90;99.90;;;;;;5007968;28;20064;-34
2022/10/17 05:25:20;;;;;;;16.17;14.60;;;12.90;99.90;;;;;;5015559;28;20487;-30
2022/10/17 05:27:46;;;;;;;18.50;16.00;;;12.90;99.90;;;;;;5001552;28;20038;-32
2022/10/17 05:30:12;;;;;;;17.60;15.65;;;12.90;99.90;;;;;;5034562;28;20461;-32
2022/10/17 05:32:37;;;;;;;21.30;18.95;;;12.90;99.90;;;;;;5014682;28;20379;-31
2022/10/17 05:35:04;;;;;;;17.70;15.63;;;12.90;99.90;;;;;;5012540;28;20483;-31
2022/10/17 05:37:31;;;;;;;21.58;16.92;;;12.90;99.90;;;;;;5010606;28;20037;-33
2022/10/17 05:39:56;;;;;;;21.33;16.63;;;12.90;99.90;;;;;;5021044;28;20120;-32
2022/10/17 05:42:23;;;;;;;20.23;18.08;;;12.90;99.90;;;;;;5001539;28;20120;-31
2022/10/17 05:44:48;;;;;;;17.98;16.20;;;12.90;99.90;;;;;;5013206;28;20038;-30
2022/10/17 05:47:15;;;;;;;22.33;17.77;;;12.90;99.90;;;;;;5017474;28;20044;-31
2022/10/17 05:49:40;;;;;;;19.88;17.20;;;12.90;99.90;;;;;;5007925;28;20069;-32
2022/10/17 05:52:06;;;;;;;20.35;16.48;;;12.90;99.90;;;;;;5013093;28;20080;-30
2022/10/17 05:54:32;;;;;;;17.38;15.05;;;13.00;99.90;;;;;;5016269;28;20057;-32
2022/10/17 05:56:57;;;;;;;17.38;15.52;;;12.90;99.90;;;;;;5003376;28;20045;-30
2022/10/17 05:59:24;;;;;;;18.23;15.55;;;13.00;99.90;;;;;;5008709;28;20044;-32
2022/10/17 06:01:51;;;;;;;17.73;14.65;;;13.00;99.90;;;;;;5002830;28;20034;-30
2022/10/17 06:04:16;;;;;;;18.50;16.55;;;13.00;99.90;;;;;;5003467;28;20034;-32
2022/10/17 06:06:42;;;;;;;20.70;18.38;;;13.00;99.90;;;;;;5004212;28;20047;-32
2022/10/17 06:09:08;;;;;;;17.77;15.88;;;13.00;99.90;;;;;;4990609;28;20046;-33
2022/10/17 06:11:35;;;;;;;18.45;16.23;;;13.00;99.90;;;;;;5011716;28;20419;-30
2022/10/17 06:14:01;;;;;;;21.38;17.52;;;13.10;99.90;;;;;;5015039;28;20071;-31
2022/10/17 06:16:27;;;;;;;22.95;18.50;;;13.10;99.90;;;;;;5009815;28;20033;-32
2022/10/17 06:18:53;;;;;;;26.45;20.30;;;13.20;99.90;;;;;;5008023;28;20120;-31
2022/10/17 06:21:23;;;;;;;21.85;18.23;;;13.30;99.90;;;;;;5030810;28;20147;-33
2022/10/17 06:23:49;;;;;;;25.65;18.98;;;13.50;99.90;;;;;;5026075;28;20034;-32
2022/10/17 06:26:14;;;;;;;25.35;18.65;;;13.70;99.90;;;;;;4986068;28;20064;-32
2022/10/17 06:28:40;;;;;;;23.63;18.75;;;14.00;99.90;;;;;;5013956;28;20041;-31
2022/10/17 06:31:08;;;;;;;24.95;18.02;;;14.10;99.90;;;;;;5011717;28;20172;-31
2022/10/17 06:33:34;;;;;;;22.38;18.02;;;14.30;99.90;;;;;;5013199;28;20098;-32
2022/10/17 06:36:00;;;;;;;20.83;17.38;;;14.50;99.90;;;;;;5007443;28;20041;-31
2022/10/17 06:38:26;;;;;;;20.30;16.00;;;14.60;99.90;;;;;;5007721;28;20038;-31
2022/10/17 06:40:53;;;;;;;22.17;15.35;;;14.70;99.90;;;;;;5013278;28;20403;-32
2022/10/17 06:43:19;;;;;;;19.02;16.05;;;14.70;99.90;;;;;;5008967;28;20033;-31
2022/10/17 06:45:46;;;;;;;18.98;16.05;;;14.90;99.90;;;;;;5016591;28;20043;-30
2022/10/17 06:48:12;;;;;;;19.23;15.07;;;14.90;99.90;;;;;;5011901;28;20037;-32
2022/10/17 06:50:37;;;;;;;18.45;15.80;;;15.00;99.90;;;;;;5012868;28;20048;-32
2022/10/17 06:53:04;;;;;;;18.38;14.55;;;15.10;99.90;;;;;;5011205;28;20045;-32
2022/10/17 06:55:31;;;;;;;18.63;14.70;;;15.10;99.90;;;;;;5006542;28;20037;-30
2022/10/17 06:57:57;;;;;;;18.55;15.60;;;15.20;99.90;;;;;;5015242;28;20042;-29
2022/10/17 07:00:25;;;;;;;18.00;14.77;;;15.30;99.90;;;;;;5017454;28;20037;-33
2022/10/17 07:02:51;;;;;;;25.08;14.13;;;15.30;99.90;;;;;;5016933;28;20038;-30
2022/10/17 07:05:18;;;;;;;18.95;15.00;;;15.40;99.90;;;;;;5008990;28;20064;-34
2022/10/17 07:07:44;;;;;;;15.85;13.95;;;15.40;99.90;;;;;;5012134;28;20069;-31
2022/10/17 07:10:10;;;;;;;16.20;14.02;;;15.40;99.90;;;;;;5006344;28;20099;-31
2022/10/17 07:12:36;;;;;;;16.98;14.27;;;15.40;99.90;;;;;;5007573;28;20037;-32
2022/10/17 07:15:03;;;;;;;16.02;13.48;;;15.50;99.90;;;;;;5006024;28;20544;-31
2022/10/17 07:17:29;;;;;;;15.57;13.65;;;15.50;99.90;;;;;;5009448;28;20100;-32
2022/10/17 07:19:55;;;;;;;14.77;12.95;;;15.60;99.90;;;;;;5010679;28;20033;-31
2022/10/17 07:22:21;;;;;;;16.85;13.93;;;15.70;99.90;;;;;;5016307;28;20505;-33
2022/10/17 07:24:47;;;;;;;15.80;12.85;;;15.80;99.90;;;;;;4988775;28;20104;-34
2022/10/17 07:27:13;;;;;;;14.75;13.13;;;15.90;99.90;;;;;;5021918;28;20486;-32
2022/10/17 07:29:39;;;;;;;16.73;12.25;;;16.00;99.90;;;;;;5012862;28;20044;-33
2022/10/17 07:32:07;;;;;;;15.27;12.32;;;16.10;99.90;;;;;;5007741;28;20041;-33
2022/10/17 07:34:36;;;;;;;13.90;12.30;;;16.20;99.90;;;;;;5013213;28;20042;-32
2022/10/17 07:37:02;;;;;;;18.63;12.70;;;16.30;99.90;;;;;;5009848;28;20040;-34
2022/10/17 07:39:28;;;;;;;13.80;12.38;;;16.40;99.90;;;;;;5010867;28;20095;-32
2022/10/17 07:41:54;;;;;;;13.40;11.68;;;16.50;99.90;;;;;;5010186;28;20038;-30
2022/10/17 07:44:19;;;;;;;13.85;12.23;;;16.70;99.90;;;;;;5015353;28;20048;-34
2022/10/17 07:46:45;;;;;;;13.85;11.02;;;16.90;99.90;;;;;;5008277;28;20041;-32
2022/10/17 07:49:11;;;;;;;12.43;10.18;;;17.10;99.90;;;;;;5006454;28;20399;-30
2022/10/17 07:51:37;;;;;;;11.25;9.90;;;17.20;99.90;;;;;;5005355;28;20297;-33
2022/10/17 07:54:04;;;;;;;13.93;10.15;;;17.20;99.90;;;;;;5007156;28;20404;-31
2022/10/17 07:56:30;;;;;;;11.20;10.00;;;17.20;99.90;;;;;;5011694;28;20041;-33
2022/10/17 07:58:56;;;;;;;12.07;10.45;;;17.10;99.90;;;;;;5016188;28;20045;-33
2022/10/17 08:01:24;;;;;;;11.65;10.55;;;17.10;99.90;;;;;;5004697;28;20082;-33
2022/10/17 08:03:50;;;;;;;11.68;10.50;;;17.00;99.90;;;;;;5013024;28;20040;-30
2022/10/17 08:06:16;;;;;;;11.85;10.45;;;17.00;99.90;;;;;;5010555;28;20082;-32
2022/10/17 08:08:43;;;;;;;14.02;10.88;;;16.90;99.90;;;;;;5015782;28;20073;-34
2022/10/17 08:11:10;;;;;;;11.75;10.52;;;16.90;99.90;;;;;;5008531;28;20116;-31
2022/10/17 08:13:39;;;;;;;13.02;10.05;;;16.90;99.90;;;;;;5000718;28;20125;-32
2022/10/17 08:16:07;;;;;;;14.73;10.73;;;16.90;99.90;;;;;;5002142;28;20069;-33
2022/10/17 08:18:35;;;;;;;11.00;9.88;;;16.90;99.90;;;;;;5006611;28;20049;-31
2022/10/17 08:21:05;;;;;;;11.95;10.60;;;16.90;99.90;;;;;;5011286;28;20042;-33
2022/10/17 08:23:31;;;;;;;12.88;10.65;;;16.90;99.90;;;;;;5008207;28;20090;-32
2022/10/17 08:26:01;;;;;;;11.88;10.45;;;16.90;99.90;;;;;;5015922;28;20037;-33
2022/10/17 08:28:27;;;;;;;12.85;11.55;;;16.90;99.90;;;;;;5021495;28;20033;-33
2022/10/17 08:31:01;;;;;;;12.27;10.23;;;16.90;99.90;;;;;;5002177;28;20380;-31
2022/10/17 08:33:26;;;;;;;13.48;10.25;;;16.90;99.90;;;;;;5013619;28;20103;-28
2022/10/17 08:35:52;;;;;;;11.90;10.02;;;16.90;99.90;;;;;;5018856;28;20049;-32
2022/10/17 08:38:18;;;;;;;12.77;10.77;;;16.90;99.90;;;;;;4999558;28;20120;-30
2022/10/17 08:40:48;;;;;;;13.63;10.57;;;16.90;99.90;;;;;;5009825;28;20119;-31
2022/10/17 08:43:30;;;;;;;13.15;10.23;;;16.90;99.90;;;;;;5007666;28;20413;-34
2022/10/17 08:46:03;;;;;;;11.07;9.95;;;16.90;99.90;;;;;;5003035;28;20433;-31
2022/10/17 08:48:41;;;;;;;14.82;11.05;;;16.90;99.90;;;;;;5015711;28;20398;-32
2022/10/17 08:51:23;;;;;;;13.63;10.52;;;16.90;99.90;;;;;;5036491;28;20073;-32
2022/10/17 08:54:00;;;;;;;12.85;10.27;;;16.90;99.90;;;;;;5027372;28;20102;-34
2022/10/17 08:56:34;;;;;;;12.55;10.52;;;17.00;99.90;;;;;;5015426;28;20037;-32
2022/10/17 08:58:59;;;;;;;11.52;10.32;;;17.00;99.90;;;;;;5008575;28;20042;-31
2022/10/17 09:01:38;;;;;;;11.15;9.77;;;17.10;99.90;;;;;;5000054;28;20032;-34
2022/10/17 09:04:15;;;;;;;13.85;9.85;;;17.10;99.90;;;;;;5004775;28;20037;-32
2022/10/17 09:07:11;;;;;;;11.57;10.38;;;17.10;99.90;;;;;;4997197;28;20065;-32
2022/10/17 09:09:49;;;;;;;11.25;10.05;;;17.10;99.90;;;;;;4953040;28;20138;-31
2022/10/17 09:12:24;;;;;;;13.02;10.05;;;17.10;99.90;;;;;;4999387;28;20052;-33
2022/10/17 09:15:01;;;;;;;15.70;10.57;;;17.10;99.90;;;;;;5006032;28;20116;-32
2022/10/17 09:17:33;;;;;;;11.65;10.35;;;17.10;99.90;;;;;;5014865;28;20048;-32
2022/10/17 09:20:01;;;;;;;12.98;10.40;;;17.10;99.90;;;;;;5014740;28;20434;-32
2022/10/17 09:22:33;;;;;;;12.18;9.82;;;17.20;99.90;;;;;;4998611;28;20048;-33
2022/10/17 09:25:03;;;;;;;12.02;10.18;;;17.20;99.90;;;;;;5010468;28;20416;-31
2022/10/17 09:27:41;;;;;;;9.52;8.55;;;17.30;99.90;;;;;;5006493;28;20045;-32
2022/10/17 09:30:17;;;;;;;10.25;9.18;;;17.40;99.90;;;;;;5002035;28;20038;-32
2022/10/17 09:32:43;;;;;;;10.88;9.07;;;17.50;99.90;;;;;;5002968;28;20034;-32
2022/10/17 09:35:16;;;;;;;9.75;8.75;;;17.60;99.90;;;;;;5010884;28;20038;-34
2022/10/17 09:37:43;;;;;;;9.77;8.63;;;17.60;99.90;;;;;;5024561;28;20033;-34
2022/10/17 09:40:18;;;;;;;10.23;9.20;;;17.60;99.90;;;;;;5003244;28;20080;-32
2022/10/17 09:42:46;;;;;;;12.88;9.30;;;17.60;99.90;;;;;;5003411;28;20069;-33
2022/10/17 09:45:24;;;;;;;10.48;9.38;;;17.60;99.90;;;;;;5007887;28;20479;-30
2022/10/17 09:48:26;;;;;;;10.57;9.07;;;17.60;99.90;;;;;;5009499;28;20037;-32
2022/10/17 09:50:54;;;;;;;9.75;8.85;;;17.60;99.90;;;;;;5008667;28;20567;-33
2022/10/17 09:53:22;;;;;;;10.05;9.05;;;17.50;99.90;;;;;;5033976;28;20041;-35
2022/10/17 09:55:55;;;;;;;13.43;10.77;;;17.50;99.90;;;;;;5014069;28;20029;-31
2022/10/17 09:58:21;;;;;;;15.20;10.15;;;17.40;99.90;;;;;;5009594;28;20044;-34
2022/10/17 10:00:48;;;;;;;11.27;10.05;;;17.40;99.90;;;;;;5005899;28;20034;-33
2022/10/17 10:03:23;;;;;;;15.98;10.75;;;17.30;99.90;;;;;;4998863;28;20045;-32
2022/10/17 10:06:17;;;;;;;13.77;10.75;;;17.30;99.90;;;;;;5015991;28;20037;-31
2022/10/17 10:08:52;;;;;;;14.23;11.13;;;17.20;99.90;;;;;;5024964;28;20107;-33
2022/10/17 10:11:23;;;;;;;13.95;11.02;;;17.20;99.90;;;;;;5013637;28;20045;-33
2022/10/17 10:13:49;;;;;;;13.63;11.00;;;17.10;99.90;;;;;;5013617;28;20487;-32
2022/10/17 10:16:15;;;;;;;14.23;12.05;;;17.10;99.90;;;;;;5003545;28;20475;-31
2022/10/17 10:18:41;;;;;;;13.63;11.55;;;17.10;99.90;;;;;;5014035;28;20121;-36
2022/10/17 10:21:09;;;;;;;12.68;11.32;;;17.00;99.90;;;;;;5002771;28;20057;-32
2022/10/17 10:23:39;;;;;;;14.88;12.15;;;17.00;99.90;;;;;;5018308;28;20048;-32
2022/10/17 10:26:12;;;;;;;14.55;12.82;;;17.00;99.90;;;;;;5002527;28;20518;-31
2022/10/17 10:28:38;;;;;;;13.65;12.27;;;17.00;99.90;;;;;;5012825;28;20433;-33
2022/10/17 10:31:07;;;;;;;16.13;12.02;;;16.90;99.90;;;;;;4989740;28;20041;-31
2022/10/17 10:33:39;;;;;;;12.75;11.50;;;16.90;99.90;;;;;;4997216;28;20045;-34
2022/10/17 10:36:06;;;;;;;14.05;12.13;;;16.90;99.90;;;;;;5013711;28;20064;-32
2022/10/17 10:38:34;;;;;;;15.45;13.70;;;16.90;99.90;;;;;;5010514;28;20038;-30
2022/10/17 10:41:08;;;;;;;14.07;12.57;;;16.80;99.90;;;;;;5012062;28;20121;-34
2022/10/17 10:43:42;;;;;;;13.82;12.35;;;16.80;99.90;;;;;;5007576;28;20045;-33
2022/10/17 10:46:21;;;;;;;14.98;12.32;;;16.80;99.90;;;;;;5006331;28;20045;-31
2022/10/17 10:49:00;;;;;;;15.80;12.73;;;16.80;99.90;;;;;;4991691;28;20045;-35
2022/10/17 10:51:33;;;;;;;15.65;13.98;;;16.70;99.90;;;;;;4994781;28;20052;-34
2022/10/17 10:54:05;;;;;;;19.50;13.80;;;16.70;99.90;;;;;;5011915;28;20538;-32
2022/10/17 10:56:37;;;;;;;16.75;14.13;;;16.70;99.90;;;;;;5001437;28;20461;-32
2022/10/17 10:59:08;;;;;;;14.23;12.70;;;16.70;99.90;;;;;;4994913;28;20049;-32
2022/10/17 11:02:29;;;;;;;17.05;14.40;;;16.70;99.90;;;;;;5010261;28;20045;-31
2022/10/17 11:05:00;;;;;;;18.30;13.75;;;16.70;99.90;;;;;;4969248;28;20043;-31
2022/10/17 11:07:32;;;;;;;16.23;14.52;;;16.70;99.90;;;;;;5001750;28;20049;-31
2022/10/17 11:10:28;;;;;;;16.27;14.52;;;16.70;99.90;;;;;;5001950;28;20042;-33
2022/10/17 11:13:14;;;;;;;17.00;14.75;;;16.80;99.90;;;;;;4995493;28;20552;-30
2022/10/17 11:15:48;;;;;;;16.67;14.98;;;16.80;99.90;;;;;;5012005;28;20507;-32
2022/10/17 11:18:33;;;;;;;;;;;16.80;99.90;;;;;;5002615;28;20098;-31
2022/10/17 11:21:03;;;;;;;16.63;13.55;;;16.80;99.90;;;;;;5043246;28;19917;-31
2022/10/17 11:23:50;;;;;;;15.15;13.70;;;16.80;99.90;;;;;;5010413;28;20037;-31
2022/10/17 11:26:25;;;;;;;17.75;14.55;;;16.80;99.90;;;;;;4997462;28;20042;-34
2022/10/17 11:28:57;;;;;;;14.88;13.30;;;16.80;99.90;;;;;;4994365;28;20038;-32
2022/10/17 11:31:29;;;;;;;17.83;14.40;;;16.80;99.90;;;;;;5008284;28;20045;-32
2022/10/17 11:34:11;;;;;;;14.48;12.52;;;16.90;99.90;;;;;;5013755;28;20036;-33
2022/10/17 11:36:41;;;;;;;14.63;12.13;;;16.90;99.90;;;;;;4999706;28;20064;-31
2022/10/17 11:39:16;;;;;;;13.45;11.95;;;16.90;99.90;;;;;;5008812;28;20099;-35
2022/10/17 11:41:50;;;;;;;14.68;11.85;;;17.00;99.90;;;;;;4992510;28;20046;-33
2022/10/17 11:44:39;;;;;;;14.20;12.43;;;17.00;99.90;;;;;;5008212;28;20488;-29
2022/10/17 11:47:25;;;;;;;13.15;11.93;;;17.10;99.90;;;;;;4997423;28;20042;-31
2022/10/17 11:50:02;;;;;;;11.85;10.73;;;17.00;99.90;;;;;;5010453;28;20515;-33
2022/10/17 11:52:44;;;;;;;13.00;11.70;;;17.00;99.90;;;;;;5011247;28;20040;-32
2022/10/17 11:55:37;;;;;;;12.40;11.15;;;17.00;99.90;;;;;;5017475;28;20042;-33
2022/10/17 11:58:20;;;;;;;11.88;10.65;;;17.00;99.90;;;;;;5006861;28;20427;-31
2022/10/17 12:01:23;;;;;;;10.82;9.82;;;16.90;99.90;;;;;;5012559;28;20037;-34
2022/10/17 12:04:07;;;;;;;10.85;9.77;;;16.90;99.90;;;;;;4994641;28;20048;-32
2022/10/17 12:06:51;;;;;;;10.50;9.45;;;16.90;99.90;;;;;;5014371;28;20048;-31
2022/10/17 12:09:26;;;;;;;10.50;9.55;;;16.90;99.90;;;;;;5015362;28;20087;-32
2022/10/17 12:11:54;;;;;;;10.95;9.10;;;16.90;99.90;;;;;;5002502;28;20041;-34
2022/10/17 12:14:32;;;;;;;13.27;11.88;;;16.90;99.90;;;;;;5014863;28;20045;-32
2022/10/17 12:16:59;;;;;;;11.30;10.20;;;16.90;99.90;;;;;;5008351;28;20038;-33
2022/10/17 12:19:29;;;;;;;13.05;11.85;;;16.90;99.90;;;;;;5004552;28;20034;-32
2022/10/17 12:22:15;;;;;;;11.30;10.20;;;16.90;99.90;;;;;;5002135;28;20511;-32
2022/10/17 12:24:44;;;;;;;12.75;11.00;;;16.90;99.90;;;;;;5024047;28;20117;-34
2022/10/17 12:27:34;;;;;;;10.07;9.13;;;17.00;99.90;;;;;;5012669;28;20037;-32
2022/10/17 12:30:11;;;;;;;9.38;8.57;;;17.20;99.90;;;;;;5009961;28;20396;-31
2022/10/17 12:32:52;;;;;;;9.02;8.13;;;17.20;99.90;;;;;;5011301;28;20030;-31
2022/10/17 12:35:23;;;;;;;7.75;6.95;;;17.30;99.90;;;;;;5037620;28;20047;-32
2022/10/17 12:37:51;;;;;;;9.30;6.78;;;17.40;99.90;;;;;;5030553;28;20033;-35
2022/10/17 12:40:35;;;;;;;7.22;6.50;;;17.40;99.90;;;;;;5014146;28;20438;-31
2022/10/17 12:43:14;;;;;;;8.90;8.10;;;17.50;99.90;;;;;;5009908;28;20038;-32
2022/10/17 12:45:59;;;;;;;7.55;6.85;;;17.50;99.90;;;;;;5022865;28;20045;-33
2022/10/17 12:48:38;;;;;;;8.80;7.90;;;17.50;99.90;;;;;;4993240;28;20139;-30
2022/10/17 12:51:10;;;;;;;8.77;7.85;;;17.60;99.90;;;;;;5010845;28;20048;-30